createdAt,value
2022-07-31T00:01:38.342Z,97504.31
2022-07-31T00:04:05.178Z,97492.75
2022-07-31T00:06:31.887Z,97486.63
2022-07-31T00:08:58.509Z,97486.00
2022-07-31T00:11:25.176Z,97478.50
2022-07-31T00:13:57.689Z,97480.44
2022-07-31T00:16:25.900Z,97485.25
2022-07-31T00:18:52.695Z,97491.13
2022-07-31T00:21:19.414Z,97481.88
2022-07-31T00:23:45.997Z,97495.31
2022-07-31T00:26:12.648Z,97495.72
2022-07-31T00:28:39.507Z,97490.69
2022-07-31T00:31:06.240Z,97497.00
2022-07-31T00:33:32.869Z,97498.66
2022-07-31T00:35:59.626Z,97498.06
2022-07-31T00:38:27.264Z,97492.78
2022-07-31T00:40:54.475Z,97499.91
2022-07-31T00:43:21.424Z,97501.41
2022-07-31T00:45:49.402Z,97492.91
2022-07-31T00:48:25.449Z,97495.19
2022-07-31T00:50:52.228Z,97498.88
2022-07-31T00:53:18.839Z,97502.78
2022-07-31T00:55:45.499Z,97505.59
2022-07-31T00:58:19.915Z,97508.81
2022-07-31T01:00:46.987Z,97518.63
2022-07-31T01:03:14.388Z,97513.75
2022-07-31T01:05:41.824Z,97514.56
2022-07-31T01:08:08.813Z,97507.91
2022-07-31T01:11:05.546Z,97509.97
2022-07-31T01:13:43.901Z,97511.34
2022-07-31T01:16:12.754Z,97509.53
2022-07-31T01:18:41.096Z,97504.25
2022-07-31T01:21:11.345Z,97513.81
2022-07-31T01:23:55.026Z,97508.56
2022-07-31T01:26:50.043Z,97509.34
2022-07-31T01:29:37.346Z,97510.25
2022-07-31T01:32:08.700Z,97516.72
2022-07-31T01:34:48.603Z,97514.28
2022-07-31T01:37:31.241Z,97505.56
2022-07-31T01:40:02.834Z,97507.59
2022-07-31T01:42:31.875Z,97508.38
2022-07-31T01:45:01.808Z,97510.38
2022-07-31T01:47:32.498Z,97504.00
2022-07-31T01:50:02.856Z,97506.88
2022-07-31T01:52:32.672Z,97496.25
2022-07-31T01:55:00.853Z,97499.91
2022-07-31T01:57:30.555Z,97491.44
2022-07-31T02:00:04.766Z,97494.38
2022-07-31T02:02:44.003Z,97487.22
2022-07-31T02:05:12.546Z,97495.31
2022-07-31T02:07:41.308Z,97494.03
2022-07-31T02:10:12.175Z,97501.75
2022-07-31T02:12:40.868Z,97502.44
2022-07-31T02:15:11.327Z,97487.50
2022-07-31T02:17:42.305Z,97497.94
2022-07-31T02:20:39.994Z,97511.09
2022-07-31T02:23:07.427Z,97502.44
2022-07-31T02:25:36.942Z,97515.75
2022-07-31T02:28:15.206Z,97511.44
2022-07-31T02:30:43.934Z,97508.63
2022-07-31T02:33:18.928Z,97512.38
2022-07-31T02:35:49.587Z,97508.91
2022-07-31T02:38:23.206Z,97507.72
2022-07-31T02:41:00.150Z,97501.28
2022-07-31T02:43:30.889Z,97497.53
2022-07-31T02:46:00.574Z,97504.16
2022-07-31T02:48:28.142Z,97510.94
2022-07-31T02:50:59.556Z,97503.56
2022-07-31T02:53:27.109Z,97504.63
2022-07-31T02:55:59.015Z,97505.06
2022-07-31T02:58:25.795Z,97508.31
2022-07-31T03:01:04.202Z,97507.19
2022-07-31T03:03:32.333Z,97506.97
2022-07-31T03:05:59.027Z,97510.66
2022-07-31T03:08:27.325Z,97510.38
2022-07-31T03:10:57.929Z,97500.91
2022-07-31T03:13:29.029Z,97500.84
2022-07-31T03:15:57.118Z,97495.81
2022-07-31T03:18:25.777Z,97496.91
2022-07-31T03:20:54.905Z,97499.19
2022-07-31T03:23:25.191Z,97498.88
2022-07-31T03:26:05.626Z,97488.38
2022-07-31T03:28:35.195Z,97492.78
2022-07-31T03:31:02.283Z,97491.47
2022-07-31T03:33:31.032Z,97490.81
2022-07-31T03:35:59.064Z,97496.63
2022-07-31T03:38:39.199Z,97499.50
2022-07-31T03:41:15.231Z,97497.09
2022-07-31T03:43:47.866Z,97507.34
2022-07-31T03:46:21.171Z,97498.63
2022-07-31T03:48:48.422Z,97511.09
2022-07-31T03:51:15.881Z,97509.13
2022-07-31T03:53:43.415Z,97510.00
2022-07-31T03:56:19.020Z,97508.63
2022-07-31T03:58:46.705Z,97516.69
2022-07-31T04:01:20.721Z,97522.81
2022-07-31T04:03:48.912Z,97517.75
2022-07-31T04:06:30.630Z,97517.28
2022-07-31T04:09:01.501Z,97518.00
2022-07-31T04:11:42.528Z,97521.41
2022-07-31T04:14:10.029Z,97522.22
2022-07-31T04:16:36.818Z,97512.28
2022-07-31T04:19:03.530Z,97518.13
2022-07-31T04:21:30.454Z,97517.44
2022-07-31T04:23:57.093Z,97512.16
2022-07-31T04:26:32.929Z,97526.16
2022-07-31T04:29:02.238Z,97526.78
2022-07-31T04:31:30.005Z,97526.53
2022-07-31T04:33:57.286Z,97524.75
2022-07-31T04:36:30.054Z,97516.06
2022-07-31T04:38:59.957Z,97524.03
2022-07-31T04:41:27.142Z,97528.91
2022-07-31T04:43:53.877Z,97517.75
2022-07-31T04:46:21.295Z,97518.06
2022-07-31T04:48:49.190Z,97517.47
2022-07-31T04:51:21.942Z,97515.47
2022-07-31T04:53:52.379Z,97524.81
2022-07-31T04:56:33.278Z,97521.94
2022-07-31T04:59:03.253Z,97512.38
2022-07-31T05:01:30.592Z,97518.53
2022-07-31T05:03:59.058Z,97526.25
2022-07-31T05:06:38.000Z,97530.38
2022-07-31T05:09:09.423Z,97537.03
2022-07-31T05:11:37.850Z,97544.50
2022-07-31T05:14:06.614Z,97539.97
2022-07-31T05:16:35.871Z,97551.69
2022-07-31T05:19:04.251Z,97537.47
2022-07-31T05:21:53.665Z,97547.19
2022-07-31T05:24:36.179Z,97548.44
2022-07-31T05:27:07.666Z,97548.56
2022-07-31T05:29:34.684Z,97548.22
2022-07-31T05:32:02.672Z,97541.53
2022-07-31T05:34:32.016Z,97556.41
2022-07-31T05:37:01.363Z,97562.53
2022-07-31T05:39:30.755Z,97558.53
2022-07-31T05:42:15.702Z,97551.00
2022-07-31T05:44:47.874Z,97549.50
2022-07-31T05:47:14.519Z,97552.88
2022-07-31T05:49:41.188Z,97555.81
2022-07-31T05:52:07.806Z,97551.78
2022-07-31T05:54:34.507Z,97555.41
2022-07-31T05:57:32.877Z,97557.53
2022-07-31T06:00:04.095Z,97574.19
2022-07-31T06:02:38.636Z,97567.34
2022-07-31T06:05:17.202Z,97565.69
2022-07-31T06:07:51.897Z,97576.41
2022-07-31T06:10:19.425Z,97579.31
2022-07-31T06:12:46.432Z,97585.59
2022-07-31T06:15:13.766Z,97584.13
2022-07-31T06:17:44.392Z,97579.47
2022-07-31T06:20:26.856Z,97577.47
2022-07-31T06:22:53.696Z,97578.78
2022-07-31T06:25:20.814Z,97575.84
2022-07-31T06:27:49.894Z,97581.81
2022-07-31T06:30:23.592Z,97575.78
2022-07-31T06:32:50.250Z,97578.06
2022-07-31T06:35:17.152Z,97576.47
2022-07-31T06:38:04.050Z,97570.63
2022-07-31T06:40:41.134Z,97577.03
2022-07-31T06:43:26.170Z,97573.09
2022-07-31T06:46:18.527Z,97574.16
2022-07-31T06:49:20.310Z,97575.47
2022-07-31T06:51:47.373Z,97573.31
2022-07-31T06:54:14.853Z,97574.47
2022-07-31T06:56:41.674Z,97566.44
2022-07-31T06:59:08.520Z,97567.13
2022-07-31T07:01:35.655Z,97571.88
2022-07-31T07:04:03.031Z,97568.50
2022-07-31T07:06:29.695Z,97565.31
2022-07-31T07:08:56.418Z,97570.50
2022-07-31T07:11:23.437Z,97567.16
2022-07-31T07:13:50.848Z,97560.22
2022-07-31T07:16:18.946Z,97551.50
2022-07-31T07:18:46.142Z,97562.72
2022-07-31T07:21:13.237Z,97554.19
2022-07-31T07:23:40.078Z,97555.28
2022-07-31T07:26:16.655Z,97546.66
2022-07-31T07:28:43.501Z,97544.50
2022-07-31T07:31:10.198Z,97551.72
2022-07-31T07:33:39.802Z,97542.94
2022-07-31T07:36:07.545Z,97542.34
2022-07-31T07:38:49.854Z,97552.31
2022-07-31T07:41:18.432Z,97540.03
2022-07-31T07:43:45.800Z,97546.06
2022-07-31T07:46:18.574Z,97546.94
2022-07-31T07:48:51.129Z,97549.31
2022-07-31T07:51:24.840Z,97547.94
2022-07-31T07:53:58.764Z,97540.56
2022-07-31T07:56:57.702Z,97540.38
2022-07-31T07:59:50.464Z,97542.41
2022-07-31T08:02:44.866Z,97539.06
2022-07-31T08:05:29.687Z,97541.25
2022-07-31T08:07:56.441Z,97531.97
2022-07-31T08:11:03.470Z,97524.06
2022-07-31T08:13:41.401Z,97532.25
2022-07-31T08:16:26.149Z,97518.63
2022-07-31T08:18:56.666Z,97524.91
2022-07-31T08:21:23.399Z,97516.69
2022-07-31T08:23:50.193Z,97516.34
2022-07-31T08:26:18.671Z,97514.22
2022-07-31T08:28:50.328Z,97519.97
2022-07-31T08:31:21.252Z,97520.22
2022-07-31T08:34:08.264Z,97521.88
2022-07-31T08:36:37.495Z,97521.66
2022-07-31T08:39:04.838Z,97518.09
2022-07-31T08:41:45.823Z,97525.13
2022-07-31T08:44:14.823Z,97522.34
2022-07-31T08:46:41.554Z,97525.16
2022-07-31T08:49:09.928Z,97517.16
2022-07-31T08:51:51.317Z,97530.78
2022-07-31T08:54:43.778Z,97522.72
2022-07-31T08:57:13.051Z,97520.59
2022-07-31T08:59:41.842Z,97524.72
2022-07-31T09:02:10.038Z,97520.13
2022-07-31T09:04:43.129Z,97523.31
2022-07-31T09:07:14.584Z,97521.94
2022-07-31T09:09:51.552Z,97509.56
2022-07-31T09:12:34.470Z,97511.38
2022-07-31T09:15:23.748Z,97511.75
2022-07-31T09:17:54.288Z,97513.53
2022-07-31T09:20:24.786Z,97504.09
2022-07-31T09:23:09.320Z,97509.34
2022-07-31T09:25:51.566Z,97506.34
2022-07-31T09:28:22.117Z,97509.44
2022-07-31T09:30:56.703Z,97515.66
2022-07-31T09:33:46.404Z,97509.56
2022-07-31T09:36:33.258Z,97503.00
2022-07-31T09:39:27.702Z,97498.41
2022-07-31T09:42:16.869Z,97515.59
2022-07-31T09:45:23.418Z,97509.13
2022-07-31T09:48:13.781Z,97510.56
2022-07-31T09:50:54.852Z,97506.56
2022-07-31T09:53:22.766Z,97506.66
2022-07-31T09:55:56.248Z,97514.56
2022-07-31T09:58:24.249Z,97501.94
2022-07-31T10:00:53.962Z,97500.84
2022-07-31T10:03:22.347Z,97498.19
2022-07-31T10:05:49.731Z,97496.38
2022-07-31T10:08:17.574Z,97492.88
2022-07-31T10:11:16.718Z,97499.34
2022-07-31T10:13:54.607Z,97480.53
2022-07-31T10:16:22.675Z,97474.66
2022-07-31T10:19:19.802Z,97476.56
2022-07-31T10:22:05.806Z,97478.00
2022-07-31T10:24:43.186Z,97482.16
2022-07-31T10:27:11.169Z,97479.09
2022-07-31T10:29:40.277Z,97471.25
2022-07-31T10:32:10.166Z,97469.59
2022-07-31T10:35:15.112Z,97458.59
2022-07-31T10:38:13.006Z,97460.75
2022-07-31T10:41:03.819Z,97452.53
2022-07-31T10:43:43.831Z,97467.41
2022-07-31T10:46:36.879Z,97454.69
2022-07-31T10:49:39.632Z,97447.50
2022-07-31T10:52:39.411Z,97452.88
2022-07-31T10:55:30.087Z,97449.53
2022-07-31T10:58:30.313Z,97449.66
2022-07-31T11:01:09.935Z,97436.56
2022-07-31T11:03:46.532Z,97439.03
2022-07-31T11:06:21.564Z,97442.16
2022-07-31T11:08:53.086Z,97442.78
2022-07-31T11:11:38.206Z,97442.69
2022-07-31T11:14:43.561Z,97440.59
2022-07-31T11:18:23.843Z,97436.91
2022-07-31T11:20:32.364Z,97441.44
2022-07-31T11:23:04.833Z,97437.56
2022-07-31T11:25:34.963Z,97439.47
2022-07-31T11:28:27.292Z,97438.19
2022-07-31T11:30:58.399Z,97445.69
2022-07-31T11:33:43.067Z,97438.66
2022-07-31T11:36:21.906Z,97440.38
2022-07-31T11:38:50.460Z,97431.72
2022-07-31T11:41:22.077Z,97428.22
2022-07-31T11:43:51.763Z,97431.47
2022-07-31T11:46:29.922Z,97429.81
2022-07-31T11:48:57.168Z,97417.78
2022-07-31T11:51:25.712Z,97415.75
2022-07-31T11:53:57.095Z,97410.06
2022-07-31T11:56:26.338Z,97412.84
2022-07-31T11:58:55.268Z,97409.97
2022-07-31T12:01:29.330Z,97416.50
2022-07-31T12:03:57.696Z,97420.91
2022-07-31T12:06:36.654Z,97412.47
2022-07-31T12:09:04.122Z,97402.22
2022-07-31T12:11:31.188Z,97405.22
2022-07-31T12:13:59.367Z,97414.25
2022-07-31T12:16:26.283Z,97397.31
2022-07-31T12:18:56.424Z,97411.16
2022-07-31T12:21:37.798Z,97417.38
2022-07-31T12:24:12.557Z,97411.78
2022-07-31T12:26:42.932Z,97418.66
2022-07-31T12:29:11.429Z,97422.22
2022-07-31T12:31:49.335Z,97413.75
2022-07-31T12:34:28.040Z,97422.69
2022-07-31T12:37:05.584Z,97409.06
2022-07-31T12:39:54.097Z,97414.63
2022-07-31T12:42:30.512Z,97412.22
2022-07-31T12:45:18.210Z,97411.25
2022-07-31T12:47:52.386Z,97407.06
2022-07-31T12:50:20.395Z,97406.34
2022-07-31T12:52:47.546Z,97399.72
2022-07-31T12:55:17.100Z,97401.81
2022-07-31T12:57:50.980Z,97388.16
2022-07-31T13:00:23.837Z,97395.09
2022-07-31T13:02:52.185Z,97395.41
2022-07-31T13:05:18.932Z,97397.16
2022-07-31T13:07:45.730Z,97391.41
2022-07-31T13:10:15.011Z,97384.72
2022-07-31T13:12:51.798Z,97388.50
2022-07-31T13:15:20.039Z,97386.75
2022-07-31T13:17:50.766Z,97381.88
2022-07-31T13:20:18.511Z,97386.91
2022-07-31T13:22:45.352Z,97381.34
2022-07-31T13:25:12.123Z,97379.00
2022-07-31T13:27:39.431Z,97384.84
2022-07-31T13:30:08.892Z,97387.78
2022-07-31T13:32:35.611Z,97386.81
2022-07-31T13:35:26.305Z,97402.56
2022-07-31T13:37:48.854Z,97392.38
2022-07-31T13:40:15.734Z,97392.66
2022-07-31T13:42:42.396Z,97391.75
2022-07-31T13:45:09.733Z,97399.03
2022-07-31T13:47:51.315Z,97397.59
2022-07-31T13:50:19.413Z,97410.72
2022-07-31T13:52:46.140Z,97404.53
2022-07-31T13:55:12.910Z,97399.09
2022-07-31T13:57:39.508Z,97387.97
2022-07-31T14:00:07.443Z,97394.97
2022-07-31T14:02:34.301Z,97389.88
2022-07-31T14:05:01.074Z,97400.06
2022-07-31T14:07:45.193Z,97397.31
2022-07-31T14:10:15.961Z,97392.13
2022-07-31T14:12:45.286Z,97399.78
2022-07-31T14:15:12.002Z,97383.66
2022-07-31T14:17:38.676Z,97386.44
2022-07-31T14:20:06.018Z,97393.56
2022-07-31T14:22:32.739Z,97400.81
2022-07-31T14:24:59.395Z,97398.69
2022-07-31T14:27:26.100Z,97407.22
2022-07-31T14:29:52.963Z,97398.72
2022-07-31T14:32:21.809Z,97391.28
2022-07-31T14:34:50.054Z,97393.22
2022-07-31T14:37:17.288Z,97395.13
2022-07-31T14:39:44.065Z,97399.38
2022-07-31T14:42:11.516Z,97397.47
2022-07-31T14:44:41.865Z,97391.53
2022-07-31T14:47:10.595Z,97396.19
2022-07-31T14:50:07.378Z,97404.94
2022-07-31T14:52:25.111Z,97402.00
2022-07-31T14:54:54.201Z,97395.97
2022-07-31T14:57:22.348Z,97402.97
2022-07-31T14:59:50.201Z,97399.03
2022-07-31T15:02:21.857Z,97413.03
2022-07-31T15:04:50.258Z,97410.31
2022-07-31T15:10:05.696Z,97411.88
2022-07-31T15:12:32.432Z,97424.75
2022-07-31T15:14:59.403Z,97427.56
2022-07-31T15:17:26.197Z,97425.06
2022-07-31T15:19:53.064Z,97426.06
2022-07-31T15:22:19.890Z,97417.13
2022-07-31T15:24:48.997Z,97410.78
2022-07-31T15:27:18.171Z,97407.69
2022-07-31T15:30:05.221Z,97398.50
2022-07-31T15:32:31.724Z,97410.78
2022-07-31T15:34:58.526Z,97404.66
2022-07-31T15:37:25.278Z,97414.00
2022-07-31T15:40:02.678Z,97419.28
2022-07-31T15:42:37.685Z,97413.88
2022-07-31T15:45:04.952Z,97405.34
2022-07-31T15:47:31.708Z,97424.28
2022-07-31T15:49:58.717Z,97420.94
2022-07-31T15:52:25.758Z,97418.16
2022-07-31T15:54:52.978Z,97424.81
2022-07-31T15:57:23.841Z,97416.50
2022-07-31T15:59:51.577Z,97413.16
2022-07-31T16:02:18.422Z,97404.81
2022-07-31T16:04:52.551Z,97399.28
2022-07-31T16:08:29.640Z,97394.53
2022-07-31T16:10:15.277Z,97397.81
2022-07-31T16:12:43.461Z,97408.56
2022-07-31T16:15:12.354Z,97390.34
2022-07-31T16:17:39.811Z,97395.97
2022-07-31T16:20:12.574Z,97391.00
2022-07-31T16:22:40.887Z,97384.31
2022-07-31T16:25:09.805Z,97391.00
2022-07-31T16:27:37.546Z,97388.22
2022-07-31T16:30:05.494Z,97392.69
2022-07-31T16:32:32.298Z,97386.81
2022-07-31T16:35:01.202Z,97387.81
2022-07-31T16:37:50.165Z,97390.34
2022-07-31T16:40:31.083Z,97388.13
2022-07-31T16:43:50.804Z,97392.09
2022-07-31T16:45:54.268Z,97394.91
2022-07-31T16:48:21.071Z,97393.78
2022-07-31T16:50:54.384Z,97393.22
2022-07-31T16:54:12.125Z,97400.44
2022-07-31T16:56:14.524Z,97395.41
2022-07-31T16:58:41.851Z,97409.78
2022-07-31T17:01:57.475Z,97405.84
2022-07-31T17:04:01.367Z,97399.91
2022-07-31T17:06:36.346Z,97406.59
2022-07-31T17:09:16.048Z,97408.84
2022-07-31T17:11:50.069Z,97402.50
2022-07-31T17:14:20.170Z,97414.94
2022-07-31T17:16:50.082Z,97419.75
2022-07-31T17:19:42.301Z,97420.03
2022-07-31T17:22:05.524Z,97409.63
2022-07-31T17:24:36.790Z,97418.88
2022-07-31T17:27:08.265Z,97418.06
2022-07-31T17:29:36.403Z,97425.38
2022-07-31T17:32:03.984Z,97418.78
2022-07-31T17:34:30.628Z,97425.06
2022-07-31T17:36:57.311Z,97430.28
2022-07-31T17:39:28.541Z,97433.78
2022-07-31T17:41:57.280Z,97435.34
2022-07-31T17:44:23.920Z,97428.06
2022-07-31T17:46:51.110Z,97437.19
2022-07-31T17:49:19.678Z,97428.78
2022-07-31T17:51:58.665Z,97420.78
2022-07-31T17:54:31.335Z,97435.19
2022-07-31T17:57:00.894Z,97434.09
2022-07-31T17:59:27.899Z,97445.50
2022-07-31T18:02:02.975Z,97446.66
2022-07-31T18:04:31.904Z,97445.53
2022-07-31T18:06:59.887Z,97448.94
2022-07-31T18:09:28.161Z,97454.91
2022-07-31T18:11:55.466Z,97451.66
2022-07-31T18:14:24.639Z,97459.75
2022-07-31T18:16:52.008Z,97455.38
2022-07-31T18:19:18.672Z,97451.00
2022-07-31T18:21:45.372Z,97448.81
2022-07-31T18:24:12.070Z,97456.84
2022-07-31T18:26:39.282Z,97456.25
2022-07-31T18:29:06.005Z,97457.94
2022-07-31T18:31:34.481Z,97459.00
2022-07-31T18:34:04.329Z,97462.44
2022-07-31T18:36:32.636Z,97461.22
2022-07-31T18:38:59.434Z,97469.81
2022-07-31T18:41:26.149Z,97459.31
2022-07-31T18:43:52.752Z,97468.44
2022-07-31T18:46:20.455Z,97472.28
2022-07-31T18:48:50.768Z,97474.69
2022-07-31T18:51:22.836Z,97473.34
2022-07-31T18:53:49.571Z,97476.34
2022-07-31T18:56:16.216Z,97488.31
2022-07-31T18:58:42.927Z,97487.72
2022-07-31T19:01:09.595Z,97488.63
2022-07-31T19:03:36.638Z,97481.81
2022-07-31T19:06:04.491Z,97481.56
2022-07-31T19:08:31.306Z,97496.47
2022-07-31T19:10:58.324Z,97496.78
2022-07-31T19:13:24.956Z,97493.63
2022-07-31T19:15:55.088Z,97501.09
2022-07-31T19:18:28.319Z,97505.16
2022-07-31T19:21:17.667Z,97500.13
2022-07-31T19:23:46.339Z,97493.50
2022-07-31T19:26:13.015Z,97494.25
2022-07-31T19:28:41.909Z,97504.91
2022-07-31T19:31:09.410Z,97511.03
2022-07-31T19:33:37.607Z,97517.34
2022-07-31T19:36:04.635Z,97511.25
2022-07-31T19:38:32.719Z,97519.44
2022-07-31T19:41:00.023Z,97523.88
2022-07-31T19:43:26.853Z,97521.34
2022-07-31T19:45:58.834Z,97520.22
2022-07-31T19:48:41.126Z,97520.84
2022-07-31T19:51:08.285Z,97524.50
2022-07-31T19:53:35.587Z,97521.66
2022-07-31T19:56:05.758Z,97530.81
2022-07-31T19:58:34.540Z,97527.19
2022-07-31T20:01:01.365Z,97526.13
2022-07-31T20:03:28.229Z,97525.66
2022-07-31T20:05:56.348Z,97523.16
2022-07-31T20:08:23.530Z,97534.63
2022-07-31T20:10:50.220Z,97533.34
2022-07-31T20:13:18.549Z,97529.72
2022-07-31T20:15:52.553Z,97528.97
2022-07-31T20:18:28.117Z,97525.22
2022-07-31T20:20:57.276Z,97527.19
2022-07-31T20:23:25.080Z,97528.44
2022-07-31T20:25:51.909Z,97530.16
2022-07-31T20:28:18.556Z,97528.09
2022-07-31T20:30:45.249Z,97528.03
2022-07-31T20:33:13.208Z,97533.47
2022-07-31T20:35:47.863Z,97531.47
2022-07-31T20:38:17.682Z,97531.81
2022-07-31T20:40:48.118Z,97528.44
2022-07-31T20:43:21.621Z,97519.91
2022-07-31T20:45:48.492Z,97519.69
2022-07-31T20:48:18.967Z,97521.69
2022-07-31T20:50:47.803Z,97515.94
2022-07-31T20:53:18.019Z,97524.47
2022-07-31T20:55:47.420Z,97522.22
2022-07-31T20:58:14.345Z,97526.50
2022-07-31T21:00:41.840Z,97527.38
2022-07-31T21:03:08.650Z,97524.31
2022-07-31T21:05:35.299Z,97522.84
2022-07-31T21:08:02.049Z,97515.94
2022-07-31T21:10:29.816Z,97520.88
2022-07-31T21:12:57.440Z,97517.16
2022-07-31T21:15:42.499Z,97509.44
2022-07-31T21:18:19.221Z,97507.84
2022-07-31T21:20:51.678Z,97508.28
2022-07-31T21:23:22.631Z,97516.47
2022-07-31T21:25:50.578Z,97509.09
2022-07-31T21:28:17.633Z,97510.88
2022-07-31T21:30:44.463Z,97520.22
2022-07-31T21:33:11.236Z,97514.50
2022-07-31T21:35:39.863Z,97528.63
2022-07-31T21:38:10.254Z,97523.88
2022-07-31T21:40:38.868Z,97519.91
2022-07-31T21:43:06.217Z,97529.44
2022-07-31T21:45:50.642Z,97522.97
2022-07-31T21:48:22.937Z,97523.81
2022-07-31T21:50:50.944Z,97529.22
2022-07-31T21:53:17.595Z,97525.72
2022-07-31T21:55:44.230Z,97528.59
2022-07-31T21:58:11.053Z,97526.56
2022-07-31T22:00:38.083Z,97530.56
2022-07-31T22:03:05.607Z,97525.97
2022-07-31T22:05:51.930Z,97519.59
2022-07-31T22:08:19.125Z,97521.56
2022-07-31T22:10:46.266Z,97524.63
2022-07-31T22:13:12.939Z,97524.03
2022-07-31T22:15:55.497Z,97530.44
2022-07-31T22:18:32.075Z,97522.69
2022-07-31T22:21:00.426Z,97522.81
2022-07-31T22:23:28.351Z,97519.13
2022-07-31T22:25:55.513Z,97522.63
2022-07-31T22:28:23.357Z,97517.69
2022-07-31T22:30:51.173Z,97523.25
2022-07-31T22:33:18.472Z,97517.41
2022-07-31T22:35:45.302Z,97512.84
2022-07-31T22:38:27.925Z,97506.31
2022-07-31T22:40:54.594Z,97506.38
2022-07-31T22:44:09.991Z,97505.13
2022-07-31T22:46:09.635Z,97504.03
2022-07-31T22:48:38.671Z,97505.13
2022-07-31T22:51:05.483Z,97496.63
2022-07-31T22:53:32.175Z,97498.34
2022-07-31T22:55:58.806Z,97505.97
2022-07-31T22:58:25.513Z,97506.16
2022-07-31T23:00:52.187Z,97509.94
2022-07-31T23:03:18.792Z,97504.97
2022-07-31T23:06:28.165Z,97501.00
2022-07-31T23:08:32.132Z,97502.44
2022-07-31T23:10:58.714Z,97501.16
2022-07-31T23:13:25.303Z,97506.91
2022-07-31T23:15:51.912Z,97504.47
2022-07-31T23:18:18.570Z,97510.28
2022-07-31T23:20:45.398Z,97502.50
2022-07-31T23:23:12.012Z,97506.50
2022-07-31T23:25:38.614Z,97508.13
2022-07-31T23:28:05.422Z,97493.16
2022-07-31T23:30:32.109Z,97492.13
2022-07-31T23:32:58.723Z,97499.31
2022-07-31T23:35:25.374Z,97494.56
2022-07-31T23:37:51.983Z,97499.97
2022-07-31T23:40:18.615Z,97498.00
2022-07-31T23:42:45.267Z,97502.22
2022-07-31T23:45:15.659Z,97495.63
2022-07-31T23:47:46.216Z,97496.72
2022-07-31T23:50:14.629Z,97497.50
2022-07-31T23:52:44.929Z,97501.66
2022-07-31T23:55:11.982Z,97496.34
2022-07-31T23:57:39.858Z,97496.78
